Deblois, Maine
Current Conditions -  °F | °C
As of 9:15 AM on Sunday 25 Jan 2015 (Local Time) from KBHB Reporting Station
Clear Clear  
Wind Chill: 28°   Ceiling: Unl
Heat Index: 36°   Visibility: 10mi
Dew Point: 28°   Wind: 12mph
Humidity: 75%   Direction: 280°W
Pressure: 29.35"   Gusts: 24mph
Location:  44.7916°N, 68.0073°W
Report Text: KBHB 251415Z 28010G21KT 10SM CLR 02/M02 A2935 RMK AO1
Loading
Personal Weather Stations






























Interactive Weather Map New forecast layout! Learn more

10-Day Weather Forecast

Advertisements
Track Severe Weather on mobile